sensor_id;sensor_type;location;lat;lon;timestamp;temperature;humidity
8633;DHT22;4354;49.832;10.746;2023-09-19T00:00:21;14.00;99.90
8633;DHT22;4354;49.832;10.746;2023-09-19T00:02:56;13.90;99.90
8633;DHT22;4354;49.832;10.746;2023-09-19T00:05:27;14.00;99.90
8633;DHT22;4354;49.832;10.746;2023-09-19T00:07:56;14.00;99.90
8633;DHT22;4354;49.832;10.746;2023-09-19T00:10:28;14.10;99.90
8633;DHT22;4354;49.832;10.746;2023-09-19T00:12:58;14.20;99.90
8633;DHT22;4354;49.832;10.746;2023-09-19T00:15:27;14.20;99.90
8633;DHT22;4354;49.832;10.746;2023-09-19T00:17:56;14.40;99.90
8633;DHT22;4354;49.832;10.746;2023-09-19T00:20:23;14.20;99.90
8633;DHT22;4354;49.832;10.746;2023-09-19T00:22:51;14.40;99.90
8633;DHT22;4354;49.832;10.746;2023-09-19T00:25:21;14.10;99.90
8633;DHT22;4354;49.832;10.746;2023-09-19T00:27:48;14.00;99.90
8633;DHT22;4354;49.832;10.746;2023-09-19T00:30:16;13.90;99.90
8633;DHT22;4354;49.832;10.746;2023-09-19T00:32:48;14.00;99.90
8633;DHT22;4354;49.832;10.746;2023-09-19T00:35:14;13.90;99.90
8633;DHT22;4354;49.832;10.746;2023-09-19T00:37:45;13.80;99.90
8633;DHT22;4354;49.832;10.746;2023-09-19T00:40:12;13.80;99.90
8633;DHT22;4354;49.832;10.746;2023-09-19T00:42:39;13.80;99.90
8633;DHT22;4354;49.832;10.746;2023-09-19T00:45:11;13.70;99.90
8633;DHT22;4354;49.832;10.746;2023-09-19T00:47:49;13.70;99.90
8633;DHT22;4354;49.832;10.746;2023-09-19T00:50:19;13.60;99.90
8633;DHT22;4354;49.832;10.746;2023-09-19T00:52:52;13.60;99.90
8633;DHT22;4354;49.832;10.746;2023-09-19T00:55:19;13.50;99.90
8633;DHT22;4354;49.832;10.746;2023-09-19T00:57:47;13.50;99.90
8633;DHT22;4354;49.832;10.746;2023-09-19T01:00:17;13.40;99.90
8633;DHT22;4354;49.832;10.746;2023-09-19T01:02:46;13.40;99.90
8633;DHT22;4354;49.832;10.746;2023-09-19T01:05:13;13.40;99.90
8633;DHT22;4354;49.832;10.746;2023-09-19T01:07:40;13.30;99.90
8633;DHT22;4354;49.832;10.746;2023-09-19T01:10:18;13.30;99.90
8633;DHT22;4354;49.832;10.746;2023-09-19T01:13:06;13.20;99.90
8633;DHT22;4354;49.832;10.746;2023-09-19T01:19:02;13.10;99.90
8633;DHT22;4354;49.832;10.746;2023-09-19T01:22:07;13.10;99.90
8633;DHT22;4354;49.832;10.746;2023-09-19T01:25:05;13.10;99.90
8633;DHT22;4354;49.832;10.746;2023-09-19T01:30:22;13.00;99.90
8633;DHT22;4354;49.832;10.746;2023-09-19T01:32:51;13.10;99.90
8633;DHT22;4354;49.832;10.746;2023-09-19T01:35:19;13.20;99.90
8633;DHT22;4354;49.832;10.746;2023-09-19T01:37:45;13.10;99.90
8633;DHT22;4354;49.832;10.746;2023-09-19T01:40:15;13.10;99.90
8633;DHT22;4354;49.832;10.746;2023-09-19T01:42:49;13.30;99.90
8633;DHT22;4354;49.832;10.746;2023-09-19T01:47:52;13.40;99.90
8633;DHT22;4354;49.832;10.746;2023-09-19T01:50:38;13.60;99.90
8633;DHT22;4354;49.832;10.746;2023-09-19T01:54:00;13.50;99.90
8633;DHT22;4354;49.832;10.746;2023-09-19T01:56:01;13.60;99.90
8633;DHT22;4354;49.832;10.746;2023-09-19T01:58:54;13.70;99.90
8633;DHT22;4354;49.832;10.746;2023-09-19T02:01:24;13.80;99.90
8633;DHT22;4354;49.832;10.746;2023-09-19T02:03:52;13.80;99.90
8633;DHT22;4354;49.832;10.746;2023-09-19T02:06:20;13.80;99.90
8633;DHT22;4354;49.832;10.746;2023-09-19T02:08:49;13.90;99.90
8633;DHT22;4354;49.832;10.746;2023-09-19T02:11:15;13.90;99.90
8633;DHT22;4354;49.832;10.746;2023-09-19T02:13:43;14.00;99.90
8633;DHT22;4354;49.832;10.746;2023-09-19T02:16:10;14.00;99.90
8633;DHT22;4354;49.832;10.746;2023-09-19T02:18:38;14.00;99.90
8633;DHT22;4354;49.832;10.746;2023-09-19T02:21:05;14.10;99.90
8633;DHT22;4354;49.832;10.746;2023-09-19T02:23:36;14.10;99.90
8633;DHT22;4354;49.832;10.746;2023-09-19T02:26:03;14.00;99.90
8633;DHT22;4354;49.832;10.746;2023-09-19T02:28:31;14.00;99.90
8633;DHT22;4354;49.832;10.746;2023-09-19T02:30:59;14.00;99.90
8633;DHT22;4354;49.832;10.746;2023-09-19T02:33:26;14.00;99.90
8633;DHT22;4354;49.832;10.746;2023-09-19T02:35:57;14.00;99.90
8633;DHT22;4354;49.832;10.746;2023-09-19T02:38:27;13.90;99.90
8633;DHT22;4354;49.832;10.746;2023-09-19T02:40:56;13.90;99.90
8633;DHT22;4354;49.832;10.746;2023-09-19T02:43:23;13.90;99.90
8633;DHT22;4354;49.832;10.746;2023-09-19T02:45:50;14.00;99.90
8633;DHT22;4354;49.832;10.746;2023-09-19T02:48:17;14.00;99.90
8633;DHT22;4354;49.832;10.746;2023-09-19T02:50:45;14.00;99.90
8633;DHT22;4354;49.832;10.746;2023-09-19T02:53:15;14.00;99.90
8633;DHT22;4354;49.832;10.746;2023-09-19T02:55:42;14.00;99.90
8633;DHT22;4354;49.832;10.746;2023-09-19T02:58:09;14.00;99.90
8633;DHT22;4354;49.832;10.746;2023-09-19T03:00:38;14.00;99.90
8633;DHT22;4354;49.832;10.746;2023-09-19T03:03:05;14.10;99.90
8633;DHT22;4354;49.832;10.746;2023-09-19T03:05:33;14.10;99.90
8633;DHT22;4354;49.832;10.746;2023-09-19T03:08:00;14.10;99.90
8633;DHT22;4354;49.832;10.746;2023-09-19T03:10:30;14.20;99.90
8633;DHT22;4354;49.832;10.746;2023-09-19T03:12:58;14.10;99.90
8633;DHT22;4354;49.832;10.746;2023-09-19T03:15:26;14.10;99.90
8633;DHT22;4354;49.832;10.746;2023-09-19T03:17:53;14.10;99.90
8633;DHT22;4354;49.832;10.746;2023-09-19T03:20:20;14.10;99.90
8633;DHT22;4354;49.832;10.746;2023-09-19T03:22:48;14.10;99.90
8633;DHT22;4354;49.832;10.746;2023-09-19T03:25:15;14.30;99.90
8633;DHT22;4354;49.832;10.746;2023-09-19T03:27:44;14.40;99.90
8633;DHT22;4354;49.832;10.746;2023-09-19T03:30:11;14.60;99.90
8633;DHT22;4354;49.832;10.746;2023-09-19T03:32:47;14.60;99.90
8633;DHT22;4354;49.832;10.746;2023-09-19T03:35:17;14.70;99.90
8633;DHT22;4354;49.832;10.746;2023-09-19T03:37:44;14.80;99.90
8633;DHT22;4354;49.832;10.746;2023-09-19T03:40:12;14.80;99.90
8633;DHT22;4354;49.832;10.746;2023-09-19T03:42:42;14.90;99.90
8633;DHT22;4354;49.832;10.746;2023-09-19T03:45:09;14.80;99.90
8633;DHT22;4354;49.832;10.746;2023-09-19T03:47:40;15.00;99.90
8633;DHT22;4354;49.832;10.746;2023-09-19T03:50:07;15.00;99.90
8633;DHT22;4354;49.832;10.746;2023-09-19T03:52:35;15.00;99.90
8633;DHT22;4354;49.832;10.746;2023-09-19T03:55:01;15.10;99.90
8633;DHT22;4354;49.832;10.746;2023-09-19T03:57:31;15.00;99.90
8633;DHT22;4354;49.832;10.746;2023-09-19T03:59:58;15.00;99.90
8633;DHT22;4354;49.832;10.746;2023-09-19T04:02:25;15.10;99.90
8633;DHT22;4354;49.832;10.746;2023-09-19T04:04:53;15.10;99.90
8633;DHT22;4354;49.832;10.746;2023-09-19T04:07:20;15.20;99.90
8633;DHT22;4354;49.832;10.746;2023-09-19T04:09:49;15.30;99.90
8633;DHT22;4354;49.832;10.746;2023-09-19T04:12:16;15.30;99.90
8633;DHT22;4354;49.832;10.746;2023-09-19T04:14:48;15.30;99.90
8633;DHT22;4354;49.832;10.746;2023-09-19T04:17:16;15.40;99.90
8633;DHT22;4354;49.832;10.746;2023-09-19T04:19:43;15.50;99.90
8633;DHT22;4354;49.832;10.746;2023-09-19T04:22:12;15.50;99.90
8633;DHT22;4354;49.832;10.746;2023-09-19T04:24:39;15.50;99.90
8633;DHT22;4354;49.832;10.746;2023-09-19T04:27:06;15.70;99.90
8633;DHT22;4354;49.832;10.746;2023-09-19T04:29:33;15.60;99.90
8633;DHT22;4354;49.832;10.746;2023-09-19T04:32:01;15.70;99.90
8633;DHT22;4354;49.832;10.746;2023-09-19T04:34:31;15.70;99.90
8633;DHT22;4354;49.832;10.746;2023-09-19T04:36:58;15.80;99.90
8633;DHT22;4354;49.832;10.746;2023-09-19T04:39:27;15.80;99.90
8633;DHT22;4354;49.832;10.746;2023-09-19T04:41:54;15.80;99.90
8633;DHT22;4354;49.832;10.746;2023-09-19T04:44:21;15.70;99.90
8633;DHT22;4354;49.832;10.746;2023-09-19T04:46:48;15.70;99.90
8633;DHT22;4354;49.832;10.746;2023-09-19T04:49:14;15.70;99.90
8633;DHT22;4354;49.832;10.746;2023-09-19T04:51:41;15.70;99.90
8633;DHT22;4354;49.832;10.746;2023-09-19T04:54:09;15.70;99.90
8633;DHT22;4354;49.832;10.746;2023-09-19T04:56:36;15.70;99.90
8633;DHT22;4354;49.832;10.746;2023-09-19T04:59:02;15.70;99.90
8633;DHT22;4354;49.832;10.746;2023-09-19T05:01:29;15.60;99.90
8633;DHT22;4354;49.832;10.746;2023-09-19T05:03:56;15.70;99.90
8633;DHT22;4354;49.832;10.746;2023-09-19T05:06:23;15.70;99.90
8633;DHT22;4354;49.832;10.746;2023-09-19T05:08:50;15.60;99.90
8633;DHT22;4354;49.832;10.746;2023-09-19T05:11:19;15.60;99.90
8633;DHT22;4354;49.832;10.746;2023-09-19T05:13:48;15.60;99.90
8633;DHT22;4354;49.832;10.746;2023-09-19T05:16:19;15.70;99.90
8633;DHT22;4354;49.832;10.746;2023-09-19T05:18:46;15.60;99.90
8633;DHT22;4354;49.832;10.746;2023-09-19T05:21:13;15.60;99.90
8633;DHT22;4354;49.832;10.746;2023-09-19T05:23:40;15.60;99.90
8633;DHT22;4354;49.832;10.746;2023-09-19T05:26:08;15.70;99.90
8633;DHT22;4354;49.832;10.746;2023-09-19T05:28:35;15.50;99.90
8633;DHT22;4354;49.832;10.746;2023-09-19T05:31:02;15.60;99.90
8633;DHT22;4354;49.832;10.746;2023-09-19T05:33:29;15.50;99.90
8633;DHT22;4354;49.832;10.746;2023-09-19T05:35:58;15.60;99.90
8633;DHT22;4354;49.832;10.746;2023-09-19T05:38:25;15.60;99.90
8633;DHT22;4354;49.832;10.746;2023-09-19T05:40:54;15.60;99.90
8633;DHT22;4354;49.832;10.746;2023-09-19T05:43:21;15.60;99.90
8633;DHT22;4354;49.832;10.746;2023-09-19T05:45:48;15.40;99.90
8633;DHT22;4354;49.832;10.746;2023-09-19T05:48:19;15.50;99.90
8633;DHT22;4354;49.832;10.746;2023-09-19T05:50:47;15.40;99.90
8633;DHT22;4354;49.832;10.746;2023-09-19T05:53:15;15.30;99.90
8633;DHT22;4354;49.832;10.746;2023-09-19T05:55:42;15.30;99.90
8633;DHT22;4354;49.832;10.746;2023-09-19T05:58:10;15.20;99.90
8633;DHT22;4354;49.832;10.746;2023-09-19T06:00:37;15.10;99.90
8633;DHT22;4354;49.832;10.746;2023-09-19T06:03:06;15.20;99.90
8633;DHT22;4354;49.832;10.746;2023-09-19T06:05:33;15.30;99.90
8633;DHT22;4354;49.832;10.746;2023-09-19T06:08:00;15.30;99.90
8633;DHT22;4354;49.832;10.746;2023-09-19T06:10:27;15.30;99.90
8633;DHT22;4354;49.832;10.746;2023-09-19T06:12:55;15.40;99.90
8633;DHT22;4354;49.832;10.746;2023-09-19T06:15:25;15.50;99.90
8633;DHT22;4354;49.832;10.746;2023-09-19T06:17:54;15.60;99.90
8633;DHT22;4354;49.832;10.746;2023-09-19T06:20:23;15.70;99.90
8633;DHT22;4354;49.832;10.746;2023-09-19T06:22:50;15.90;99.90
8633;DHT22;4354;49.832;10.746;2023-09-19T06:25:19;16.00;99.90
8633;DHT22;4354;49.832;10.746;2023-09-19T06:27:50;16.20;99.90
8633;DHT22;4354;49.832;10.746;2023-09-19T06:30:22;16.30;99.90
8633;DHT22;4354;49.832;10.746;2023-09-19T06:32:56;16.50;99.90
8633;DHT22;4354;49.832;10.746;2023-09-19T06:35:24;16.60;99.90
8633;DHT22;4354;49.832;10.746;2023-09-19T06:37:52;16.70;99.30
8633;DHT22;4354;49.832;10.746;2023-09-19T06:40:19;16.80;96.60
8633;DHT22;4354;49.832;10.746;2023-09-19T06:42:49;16.90;76.30
8633;DHT22;4354;49.832;10.746;2023-09-19T06:45:16;16.90;67.90
8633;DHT22;4354;49.832;10.746;2023-09-19T06:47:47;17.00;72.70
8633;DHT22;4354;49.832;10.746;2023-09-19T06:50:18;17.00;65.20
8633;DHT22;4354;49.832;10.746;2023-09-19T06:52:46;17.00;46.00
8633;DHT22;4354;49.832;10.746;2023-09-19T06:55:17;17.00;6.80
8633;DHT22;4354;49.832;10.746;2023-09-19T06:57:48;17.30;1.00
8633;DHT22;4354;49.832;10.746;2023-09-19T07:00:16;17.40;1.00
8633;DHT22;4354;49.832;10.746;2023-09-19T07:03:02;17.60;1.00
8633;DHT22;4354;49.832;10.746;2023-09-19T07:05:32;17.80;1.00
8633;DHT22;4354;49.832;10.746;2023-09-19T07:07:59;18.10;1.00
8633;DHT22;4354;49.832;10.746;2023-09-19T07:10:27;18.20;1.00
8633;DHT22;4354;49.832;10.746;2023-09-19T07:12:59;18.20;1.00
8633;DHT22;4354;49.832;10.746;2023-09-19T07:15:27;18.40;1.00
8633;DHT22;4354;49.832;10.746;2023-09-19T07:17:54;18.40;1.00
8633;DHT22;4354;49.832;10.746;2023-09-19T07:20:24;18.60;1.00
8633;DHT22;4354;49.832;10.746;2023-09-19T07:22:55;18.40;1.00
8633;DHT22;4354;49.832;10.746;2023-09-19T07:25:22;18.40;1.00
8633;DHT22;4354;49.832;10.746;2023-09-19T07:27:49;18.50;1.00
8633;DHT22;4354;49.832;10.746;2023-09-19T07:30:17;18.80;1.00
8633;DHT22;4354;49.832;10.746;2023-09-19T07:32:45;19.00;99.90
8633;DHT22;4354;49.832;10.746;2023-09-19T07:35:11;19.30;1.00
8633;DHT22;4354;49.832;10.746;2023-09-19T07:37:38;19.40;1.00
8633;DHT22;4354;49.832;10.746;2023-09-19T07:40:06;20.10;99.90
8633;DHT22;4354;49.832;10.746;2023-09-19T07:42:38;20.80;99.90
8633;DHT22;4354;49.832;10.746;2023-09-19T07:45:08;21.40;1.00
8633;DHT22;4354;49.832;10.746;2023-09-19T07:47:34;21.70;99.90
8633;DHT22;4354;49.832;10.746;2023-09-19T07:50:03;22.20;1.00
8633;DHT22;4354;49.832;10.746;2023-09-19T07:52:30;22.30;1.00
8633;DHT22;4354;49.832;10.746;2023-09-19T07:54:56;22.10;1.00
8633;DHT22;4354;49.832;10.746;2023-09-19T07:57:27;22.00;1.00
8633;DHT22;4354;49.832;10.746;2023-09-19T07:59:55;21.60;1.00
8633;DHT22;4354;49.832;10.746;2023-09-19T08:02:22;21.50;1.00
8633;DHT22;4354;49.832;10.746;2023-09-19T08:04:49;21.50;1.00
8633;DHT22;4354;49.832;10.746;2023-09-19T08:07:16;21.80;1.00
8633;DHT22;4354;49.832;10.746;2023-09-19T08:09:43;21.70;1.00
8633;DHT22;4354;49.832;10.746;2023-09-19T08:12:13;21.60;1.00
8633;DHT22;4354;49.832;10.746;2023-09-19T08:14:41;21.50;1.00
8633;DHT22;4354;49.832;10.746;2023-09-19T08:17:08;21.60;1.00
8633;DHT22;4354;49.832;10.746;2023-09-19T08:19:35;21.80;1.00
8633;DHT22;4354;49.832;10.746;2023-09-19T08:22:03;22.10;1.00
8633;DHT22;4354;49.832;10.746;2023-09-19T08:24:30;22.70;1.00
8633;DHT22;4354;49.832;10.746;2023-09-19T08:26:57;23.80;1.00
8633;DHT22;4354;49.832;10.746;2023-09-19T08:29:25;24.20;99.90
8633;DHT22;4354;49.832;10.746;2023-09-19T08:31:55;24.40;99.90
8633;DHT22;4354;49.832;10.746;2023-09-19T08:34:23;24.30;99.90
8633;DHT22;4354;49.832;10.746;2023-09-19T08:36:51;23.80;99.90
8633;DHT22;4354;49.832;10.746;2023-09-19T08:39:19;23.60;99.90
8633;DHT22;4354;49.832;10.746;2023-09-19T08:41:46;24.30;99.90
8633;DHT22;4354;49.832;10.746;2023-09-19T08:44:13;24.50;99.90
8633;DHT22;4354;49.832;10.746;2023-09-19T08:46:41;24.60;99.90
8633;DHT22;4354;49.832;10.746;2023-09-19T08:49:24;24.80;99.90
8633;DHT22;4354;49.832;10.746;2023-09-19T08:52:05;25.40;99.90
8633;DHT22;4354;49.832;10.746;2023-09-19T08:54:38;25.60;99.90
8633;DHT22;4354;49.832;10.746;2023-09-19T08:57:07;25.80;99.90
8633;DHT22;4354;49.832;10.746;2023-09-19T08:59:38;25.30;99.90
8633;DHT22;4354;49.832;10.746;2023-09-19T09:02:12;24.80;99.90
8633;DHT22;4354;49.832;10.746;2023-09-19T09:04:41;25.20;99.90
8633;DHT22;4354;49.832;10.746;2023-09-19T09:07:12;25.00;99.90
8633;DHT22;4354;49.832;10.746;2023-09-19T09:09:40;24.00;99.90
8633;DHT22;4354;49.832;10.746;2023-09-19T09:12:12;23.80;99.90
8633;DHT22;4354;49.832;10.746;2023-09-19T09:14:40;23.30;99.90
8633;DHT22;4354;49.832;10.746;2023-09-19T09:17:12;23.20;99.90
8633;DHT22;4354;49.832;10.746;2023-09-19T09:19:39;23.20;99.90
8633;DHT22;4354;49.832;10.746;2023-09-19T09:22:10;23.30;99.90
8633;DHT22;4354;49.832;10.746;2023-09-19T09:24:38;22.90;99.90
8633;DHT22;4354;49.832;10.746;2023-09-19T09:27:17;22.60;99.90
8633;DHT22;4354;49.832;10.746;2023-09-19T09:29:48;22.60;99.90
8633;DHT22;4354;49.832;10.746;2023-09-19T09:32:19;23.20;99.90
8633;DHT22;4354;49.832;10.746;2023-09-19T09:34:53;23.40;99.90
8633;DHT22;4354;49.832;10.746;2023-09-19T09:37:25;24.10;99.90
8633;DHT22;4354;49.832;10.746;2023-09-19T09:39:57;24.40;99.90
8633;DHT22;4354;49.832;10.746;2023-09-19T09:42:35;24.90;99.90
8633;DHT22;4354;49.832;10.746;2023-09-19T09:45:22;25.80;99.90
8633;DHT22;4354;49.832;10.746;2023-09-19T09:48:04;25.90;99.90
8633;DHT22;4354;49.832;10.746;2023-09-19T09:50:48;25.20;99.90
8633;DHT22;4354;49.832;10.746;2023-09-19T09:53:28;24.20;99.90
8633;DHT22;4354;49.832;10.746;2023-09-19T09:56:03;23.60;99.90
8633;DHT22;4354;49.832;10.746;2023-09-19T09:58:35;23.10;99.90
8633;DHT22;4354;49.832;10.746;2023-09-19T10:01:06;22.90;99.90
8633;DHT22;4354;49.832;10.746;2023-09-19T10:03:39;23.70;99.90
8633;DHT22;4354;49.832;10.746;2023-09-19T10:06:10;24.40;99.90
8633;DHT22;4354;49.832;10.746;2023-09-19T10:09:06;24.60;99.90
8633;DHT22;4354;49.832;10.746;2023-09-19T10:12:06;24.60;99.90
8633;DHT22;4354;49.832;10.746;2023-09-19T10:14:38;24.20;99.90
8633;DHT22;4354;49.832;10.746;2023-09-19T10:17:05;23.90;99.90
8633;DHT22;4354;49.832;10.746;2023-09-19T10:19:55;23.50;99.90
8633;DHT22;4354;49.832;10.746;2023-09-19T10:22:26;23.40;99.90
8633;DHT22;4354;49.832;10.746;2023-09-19T10:24:54;22.90;99.90
8633;DHT22;4354;49.832;10.746;2023-09-19T10:27:29;23.00;99.90
8633;DHT22;4354;49.832;10.746;2023-09-19T10:30:06;23.20;99.90
8633;DHT22;4354;49.832;10.746;2023-09-19T10:32:35;23.10;99.90
8633;DHT22;4354;49.832;10.746;2023-09-19T10:35:05;22.60;99.90
8633;DHT22;4354;49.832;10.746;2023-09-19T10:37:34;22.40;99.90
8633;DHT22;4354;49.832;10.746;2023-09-19T10:40:06;22.60;99.90
8633;DHT22;4354;49.832;10.746;2023-09-19T10:42:38;22.50;99.90
8633;DHT22;4354;49.832;10.746;2023-09-19T10:45:08;22.40;99.90
8633;DHT22;4354;49.832;10.746;2023-09-19T10:47:40;22.40;99.90
8633;DHT22;4354;49.832;10.746;2023-09-19T10:50:07;22.20;99.90
8633;DHT22;4354;49.832;10.746;2023-09-19T10:52:40;23.20;99.90
8633;DHT22;4354;49.832;10.746;2023-09-19T10:55:10;23.60;99.90
8633;DHT22;4354;49.832;10.746;2023-09-19T10:57:44;23.50;99.90
8633;DHT22;4354;49.832;10.746;2023-09-19T11:00:11;23.20;99.90
8633;DHT22;4354;49.832;10.746;2023-09-19T11:05:36;23.40;99.90
8633;DHT22;4354;49.832;10.746;2023-09-19T11:08:07;23.90;99.90
8633;DHT22;4354;49.832;10.746;2023-09-19T11:10:47;24.50;99.90
8633;DHT22;4354;49.832;10.746;2023-09-19T11:13:31;24.80;99.90
8633;DHT22;4354;49.832;10.746;2023-09-19T11:26:56;25.50;99.90
8633;DHT22;4354;49.832;10.746;2023-09-19T11:29:35;25.50;99.90
8633;DHT22;4354;49.832;10.746;2023-09-19T11:32:04;25.90;99.90
8633;DHT22;4354;49.832;10.746;2023-09-19T11:40:10;25.00;99.90
8633;DHT22;4354;49.832;10.746;2023-09-19T11:42:44;24.70;99.90
8633;DHT22;4354;49.832;10.746;2023-09-19T11:48:18;24.70;99.90
8633;DHT22;4354;49.832;10.746;2023-09-19T11:50:45;23.80;99.90
8633;DHT22;4354;49.832;10.746;2023-09-19T11:53:14;23.30;99.90
8633;DHT22;4354;49.832;10.746;2023-09-19T11:55:43;23.80;99.90
8633;DHT22;4354;49.832;10.746;2023-09-19T11:58:10;24.20;99.90
8633;DHT22;4354;49.832;10.746;2023-09-19T12:00:43;24.60;99.90
8633;DHT22;4354;49.832;10.746;2023-09-19T12:03:11;25.00;99.90
8633;DHT22;4354;49.832;10.746;2023-09-19T12:05:40;25.60;99.90
8633;DHT22;4354;49.832;10.746;2023-09-19T12:08:08;25.60;94.80
8633;DHT22;4354;49.832;10.746;2023-09-19T12:10:46;25.30;94.00
8633;DHT22;4354;49.832;10.746;2023-09-19T12:13:18;25.50;96.40
8633;DHT22;4354;49.832;10.746;2023-09-19T12:15:45;25.50;94.60
8633;DHT22;4354;49.832;10.746;2023-09-19T12:18:28;25.30;93.00
8633;DHT22;4354;49.832;10.746;2023-09-19T12:20:55;25.70;93.70
8633;DHT22;4354;49.832;10.746;2023-09-19T12:23:22;25.80;91.70
8633;DHT22;4354;49.832;10.746;2023-09-19T12:25:49;26.10;84.40
8633;DHT22;4354;49.832;10.746;2023-09-19T12:28:20;26.30;84.00
8633;DHT22;4354;49.832;10.746;2023-09-19T12:30:49;26.50;80.30
8633;DHT22;4354;49.832;10.746;2023-09-19T12:33:17;26.00;72.40
8633;DHT22;4354;49.832;10.746;2023-09-19T12:35:46;25.60;79.20
8633;DHT22;4354;49.832;10.746;2023-09-19T12:38:26;24.80;78.60
8633;DHT22;4354;49.832;10.746;2023-09-19T12:41:01;24.30;82.40
8633;DHT22;4354;49.832;10.746;2023-09-19T12:43:29;24.20;83.30
8633;DHT22;4354;49.832;10.746;2023-09-19T12:45:59;24.40;84.20
8633;DHT22;4354;49.832;10.746;2023-09-19T12:48:26;24.30;97.00
8633;DHT22;4354;49.832;10.746;2023-09-19T12:51:05;24.10;78.30
8633;DHT22;4354;49.832;10.746;2023-09-19T12:53:35;23.90;79.20
8633;DHT22;4354;49.832;10.746;2023-09-19T12:56:09;24.00;78.20
8633;DHT22;4354;49.832;10.746;2023-09-19T12:58:58;24.00;79.50
8633;DHT22;4354;49.832;10.746;2023-09-19T13:01:30;24.00;78.40
8633;DHT22;4354;49.832;10.746;2023-09-19T13:04:17;23.70;68.80
8633;DHT22;4354;49.832;10.746;2023-09-19T13:06:51;23.30;80.60
8633;DHT22;4354;49.832;10.746;2023-09-19T13:09:22;23.50;80.70
8633;DHT22;4354;49.832;10.746;2023-09-19T13:11:54;23.40;77.30
8633;DHT22;4354;49.832;10.746;2023-09-19T13:14:25;23.50;76.80
8633;DHT22;4354;49.832;10.746;2023-09-19T13:17:08;23.60;80.20
8633;DHT22;4354;49.832;10.746;2023-09-19T13:19:50;23.70;78.10
8633;DHT22;4354;49.832;10.746;2023-09-19T13:25:13;23.80;77.30
8633;DHT22;4354;49.832;10.746;2023-09-19T13:27:49;23.80;75.20
8633;DHT22;4354;49.832;10.746;2023-09-19T13:30:19;23.80;76.60
8633;DHT22;4354;49.832;10.746;2023-09-19T13:32:46;23.70;73.60
8633;DHT22;4354;49.832;10.746;2023-09-19T13:35:15;23.50;70.50
8633;DHT22;4354;49.832;10.746;2023-09-19T13:37:42;23.50;68.60
8633;DHT22;4354;49.832;10.746;2023-09-19T13:40:13;23.60;70.60
8633;DHT22;4354;49.832;10.746;2023-09-19T13:42:41;23.50;71.60
8633;DHT22;4354;49.832;10.746;2023-09-19T13:45:09;23.50;71.90
8633;DHT22;4354;49.832;10.746;2023-09-19T13:47:42;23.50;67.80
8633;DHT22;4354;49.832;10.746;2023-09-19T13:50:09;23.20;64.70
8633;DHT22;4354;49.832;10.746;2023-09-19T13:52:36;23.20;90.80
8633;DHT22;4354;49.832;10.746;2023-09-19T13:55:05;23.30;70.80
8633;DHT22;4354;49.832;10.746;2023-09-19T13:57:33;23.20;66.80
8633;DHT22;4354;49.832;10.746;2023-09-19T14:00:00;23.20;62.50
8633;DHT22;4354;49.832;10.746;2023-09-19T14:02:27;23.20;59.70
8633;DHT22;4354;49.832;10.746;2023-09-19T14:04:54;23.00;61.70
8633;DHT22;4354;49.832;10.746;2023-09-19T14:07:21;23.00;66.60
8633;DHT22;4354;49.832;10.746;2023-09-19T14:09:48;22.80;56.00
8633;DHT22;4354;49.832;10.746;2023-09-19T14:12:15;22.60;58.10
8633;DHT22;4354;49.832;10.746;2023-09-19T14:14:42;22.40;60.50
8633;DHT22;4354;49.832;10.746;2023-09-19T14:17:09;22.30;62.50
8633;DHT22;4354;49.832;10.746;2023-09-19T14:19:36;22.40;60.10
8633;DHT22;4354;49.832;10.746;2023-09-19T14:22:04;22.40;65.80
8633;DHT22;4354;49.832;10.746;2023-09-19T14:24:35;22.30;69.70
8633;DHT22;4354;49.832;10.746;2023-09-19T14:27:03;22.30;67.20
8633;DHT22;4354;49.832;10.746;2023-09-19T14:29:30;22.10;69.30
8633;DHT22;4354;49.832;10.746;2023-09-19T14:31:58;22.10;66.60
8633;DHT22;4354;49.832;10.746;2023-09-19T14:34:26;22.10;58.50
8633;DHT22;4354;49.832;10.746;2023-09-19T14:36:53;22.00;63.50
8633;DHT22;4354;49.832;10.746;2023-09-19T14:39:21;22.00;66.90
8633;DHT22;4354;49.832;10.746;2023-09-19T14:41:48;22.00;61.00
8633;DHT22;4354;49.832;10.746;2023-09-19T14:44:15;21.90;58.50
8633;DHT22;4354;49.832;10.746;2023-09-19T14:46:44;21.90;69.30
8633;DHT22;4354;49.832;10.746;2023-09-19T14:49:12;21.90;63.40
8633;DHT22;4354;49.832;10.746;2023-09-19T14:51:39;21.80;60.60
8633;DHT22;4354;49.832;10.746;2023-09-19T14:54:10;21.70;71.20
8633;DHT22;4354;49.832;10.746;2023-09-19T14:56:38;21.60;59.90
8633;DHT22;4354;49.832;10.746;2023-09-19T14:59:04;21.60;64.70
8633;DHT22;4354;49.832;10.746;2023-09-19T15:01:33;21.50;65.40
8633;DHT22;4354;49.832;10.746;2023-09-19T15:04:00;21.40;60.40
8633;DHT22;4354;49.832;10.746;2023-09-19T15:06:28;21.30;68.20
8633;DHT22;4354;49.832;10.746;2023-09-19T15:08:55;21.30;65.90
8633;DHT22;4354;49.832;10.746;2023-09-19T15:11:22;21.20;64.90
8633;DHT22;4354;49.832;10.746;2023-09-19T15:13:52;21.10;67.50
8633;DHT22;4354;49.832;10.746;2023-09-19T15:16:19;21.00;74.00
8633;DHT22;4354;49.832;10.746;2023-09-19T15:18:46;21.10;66.60
8633;DHT22;4354;49.832;10.746;2023-09-19T15:21:18;20.90;70.00
8633;DHT22;4354;49.832;10.746;2023-09-19T15:23:45;20.90;61.70
8633;DHT22;4354;49.832;10.746;2023-09-19T15:26:14;20.90;69.80
8633;DHT22;4354;49.832;10.746;2023-09-19T15:28:44;20.90;74.90
8633;DHT22;4354;49.832;10.746;2023-09-19T15:31:12;21.00;59.00
8633;DHT22;4354;49.832;10.746;2023-09-19T15:33:40;21.00;73.70
8633;DHT22;4354;49.832;10.746;2023-09-19T15:36:09;21.10;69.50
8633;DHT22;4354;49.832;10.746;2023-09-19T15:39:08;21.10;75.80
8633;DHT22;4354;49.832;10.746;2023-09-19T15:41:39;21.10;73.50
8633;DHT22;4354;49.832;10.746;2023-09-19T15:44:15;21.00;76.60
8633;DHT22;4354;49.832;10.746;2023-09-19T15:46:43;21.00;74.80
8633;DHT22;4354;49.832;10.746;2023-09-19T15:49:11;20.90;68.70
8633;DHT22;4354;49.832;10.746;2023-09-19T15:51:38;20.80;75.80
8633;DHT22;4354;49.832;10.746;2023-09-19T15:54:09;20.70;70.90
8633;DHT22;4354;49.832;10.746;2023-09-19T15:56:37;20.50;77.90
8633;DHT22;4354;49.832;10.746;2023-09-19T15:59:04;20.40;67.70
8633;DHT22;4354;49.832;10.746;2023-09-19T16:01:31;20.30;69.40
8633;DHT22;4354;49.832;10.746;2023-09-19T16:03:58;20.20;75.50
8633;DHT22;4354;49.832;10.746;2023-09-19T16:06:29;20.00;68.80
8633;DHT22;4354;49.832;10.746;2023-09-19T16:08:58;20.00;81.60
8633;DHT22;4354;49.832;10.746;2023-09-19T16:11:27;20.00;83.30
8633;DHT22;4354;49.832;10.746;2023-09-19T16:13:54;20.00;83.20
8633;DHT22;4354;49.832;10.746;2023-09-19T16:16:22;19.90;80.60
8633;DHT22;4354;49.832;10.746;2023-09-19T16:18:51;20.00;85.00
8633;DHT22;4354;49.832;10.746;2023-09-19T16:21:19;19.90;84.80
8633;DHT22;4354;49.832;10.746;2023-09-19T16:23:47;19.90;86.40
8633;DHT22;4354;49.832;10.746;2023-09-19T16:26:17;19.90;85.90
8633;DHT22;4354;49.832;10.746;2023-09-19T16:28:45;19.90;86.20
8633;DHT22;4354;49.832;10.746;2023-09-19T16:31:13;19.90;86.50
8633;DHT22;4354;49.832;10.746;2023-09-19T16:33:41;19.90;82.60
8633;DHT22;4354;49.832;10.746;2023-09-19T16:36:09;19.70;89.00
8633;DHT22;4354;49.832;10.746;2023-09-19T16:38:37;19.60;90.50